createdAt,value
2022-09-03T00:01:01.712Z,101526.78
2022-09-03T00:08:44.507Z,101524.84
2022-09-03T00:16:21.844Z,101532.91
2022-09-03T00:23:58.939Z,101521.16
2022-09-03T00:31:39.213Z,101526.44
2022-09-03T00:39:16.969Z,101521.06
2022-09-03T00:47:00.197Z,101527.22
2022-09-03T00:54:47.693Z,101521.84
2022-09-03T01:02:31.187Z,101507.50
2022-09-03T01:10:17.432Z,101511.84
2022-09-03T01:18:04.795Z,101505.53
2022-09-03T01:25:52.594Z,101509.94
2022-09-03T01:33:35.128Z,101508.84
2022-09-03T01:41:39.715Z,101496.19
2022-09-03T01:49:24.920Z,101505.75
2022-09-03T01:57:35.873Z,101503.09
2022-09-03T02:05:15.820Z,101509.34
2022-09-03T02:12:54.967Z,101511.25
2022-09-03T02:20:31.041Z,101506.72
2022-09-03T02:28:07.473Z,101503.91
2022-09-03T02:35:52.458Z,101507.34
2022-09-03T02:43:32.442Z,101503.47
2022-09-03T02:51:13.830Z,101509.75
2022-09-03T02:58:48.538Z,101516.66
2022-09-03T03:06:23.823Z,101504.88
2022-09-03T03:13:57.806Z,101506.63
2022-09-03T03:21:32.966Z,101501.88
2022-09-03T03:29:06.534Z,101518.72
2022-09-03T03:36:41.790Z,101518.53
2022-09-03T03:44:15.649Z,101525.78
2022-09-03T03:51:50.839Z,101528.38
2022-09-03T03:59:26.564Z,101522.91
2022-09-03T04:07:01.850Z,101524.56
2022-09-03T04:14:36.618Z,101530.72
2022-09-03T04:22:12.182Z,101522.88
2022-09-03T04:29:46.058Z,101517.47
2022-09-03T04:37:21.325Z,101521.88
2022-09-03T04:44:55.257Z,101515.69
2022-09-03T04:52:31.711Z,101516.53
2022-09-03T05:00:11.484Z,101522.91
2022-09-03T05:07:47.031Z,101521.13
2022-09-03T05:15:21.118Z,101523.88
2022-09-03T05:22:56.728Z,101536.56
2022-09-03T05:30:30.623Z,101533.94
2022-09-03T05:38:07.435Z,101523.31
2022-09-03T05:45:42.171Z,101533.31
2022-09-03T05:53:18.416Z,101531.59
2022-09-03T06:00:52.460Z,101544.38
2022-09-03T06:08:27.663Z,101528.44
2022-09-03T06:16:03.681Z,101538.47
2022-09-03T06:23:38.858Z,101531.50
2022-09-03T06:31:17.538Z,101530.84
2022-09-03T06:38:55.445Z,101537.34
2022-09-03T06:46:29.327Z,101537.59
2022-09-03T06:54:06.247Z,101538.69
2022-09-03T07:01:43.987Z,101536.25
2022-09-03T07:09:20.112Z,101534.50
2022-09-03T07:16:53.945Z,101537.34
2022-09-03T07:24:29.191Z,101548.22
2022-09-03T07:32:03.132Z,101551.03
2022-09-03T07:39:38.501Z,101551.25
2022-09-03T07:47:13.120Z,101553.19
2022-09-03T07:54:48.424Z,101548.84
2022-09-03T08:02:22.271Z,101550.88
2022-09-03T08:09:57.987Z,101554.63
2022-09-03T08:17:31.852Z,101550.28
2022-09-03T08:25:07.981Z,101546.94
2022-09-03T08:32:47.488Z,101543.59
2022-09-03T08:40:24.235Z,101527.22
2022-09-03T08:48:06.588Z,101516.81
2022-09-03T08:55:48.588Z,101507.63
2022-09-03T09:03:43.273Z,101516.78
2022-09-03T09:11:31.048Z,101508.81
2022-09-03T09:19:21.033Z,101512.22
2022-09-03T09:27:00.095Z,101499.31
2022-09-03T09:34:36.989Z,101487.56
2022-09-03T09:42:13.268Z,101477.75
2022-09-03T09:49:54.363Z,101472.56
2022-09-03T09:57:29.563Z,101477.84
2022-09-03T10:05:14.793Z,101463.94
2022-09-03T10:12:59.551Z,101455.84
2022-09-03T10:20:41.010Z,101456.66
2022-09-03T10:28:16.187Z,101451.28
2022-09-03T10:35:56.011Z,101449.22
2022-09-03T10:43:47.926Z,101445.16
2022-09-03T10:51:27.630Z,101440.66
2022-09-03T10:59:29.268Z,101429.03
2022-09-03T11:07:05.953Z,101416.84
2022-09-03T11:14:45.801Z,101417.53
2022-09-03T11:22:23.372Z,101406.19
2022-09-03T11:30:02.533Z,101407.44
2022-09-03T11:37:53.560Z,101390.38
2022-09-03T11:45:38.035Z,101392.38
2022-09-03T11:53:28.194Z,101388.78
2022-09-03T12:01:10.355Z,101391.38
2022-09-03T12:09:03.706Z,101380.53
2022-09-03T12:17:05.758Z,101376.91
2022-09-03T12:24:39.530Z,101358.97
2022-09-03T12:32:16.122Z,101361.97
2022-09-03T12:40:11.285Z,101354.09
2022-09-03T12:47:47.344Z,101347.94
2022-09-03T12:55:30.716Z,101335.31
2022-09-03T13:03:09.744Z,101333.25
2022-09-03T13:10:44.965Z,101334.41
2022-09-03T13:18:28.613Z,101319.44
2022-09-03T13:26:11.615Z,101325.13
2022-09-03T13:33:52.669Z,101325.47
2022-09-03T13:41:37.672Z,101323.66
2022-09-03T13:49:45.588Z,101318.31
2022-09-03T13:57:29.991Z,101308.31
2022-09-03T14:05:11.092Z,101304.03
2022-09-03T14:12:48.531Z,101301.00
2022-09-03T14:20:27.298Z,101300.97
2022-09-03T14:28:16.156Z,101279.16
2022-09-03T14:36:04.230Z,101283.69
2022-09-03T14:43:58.454Z,101290.59
2022-09-03T14:51:45.940Z,101281.28
2022-09-03T14:59:35.945Z,101274.28
2022-09-03T15:07:25.324Z,101271.63
2022-09-03T15:15:02.136Z,101261.53
2022-09-03T15:23:05.812Z,101267.81
2022-09-03T15:30:45.665Z,101267.91
2022-09-03T15:38:29.347Z,101274.91
2022-09-03T15:46:10.832Z,101275.66
2022-09-03T15:53:54.908Z,101273.75
2022-09-03T16:01:36.024Z,101274.75
2022-09-03T16:09:24.347Z,101270.13
2022-09-03T16:17:03.885Z,101266.34
2022-09-03T16:24:49.980Z,101280.00
2022-09-03T16:32:33.493Z,101283.81
2022-09-03T16:40:24.438Z,101278.88
2022-09-03T16:48:17.833Z,101281.28
2022-09-03T16:56:14.033Z,101282.47
2022-09-03T17:04:23.929Z,101280.09
2022-09-03T17:12:09.839Z,101281.13
2022-09-03T17:19:53.275Z,101285.91
2022-09-03T17:27:41.209Z,101295.22
2022-09-03T17:35:20.358Z,101284.63
2022-09-03T17:43:05.798Z,101284.91
2022-09-03T17:50:45.908Z,101297.81
2022-09-03T17:58:27.386Z,101308.78
2022-09-03T18:06:05.733Z,101318.00
2022-09-03T18:14:02.267Z,101328.00
2022-09-03T18:21:57.507Z,101330.81
2022-09-03T18:29:58.512Z,101332.75
2022-09-03T18:37:50.446Z,101340.97
2022-09-03T18:46:50.862Z,101354.63
2022-09-03T18:54:16.285Z,101337.56
2022-09-03T19:02:13.030Z,101353.09
2022-09-03T19:10:12.147Z,101351.34
2022-09-03T19:18:36.678Z,101349.63
2022-09-03T19:26:39.604Z,101347.03
2022-09-03T19:34:48.280Z,101354.31
2022-09-03T19:43:01.799Z,101361.63
2022-09-03T19:51:00.576Z,101362.59
2022-09-03T19:58:55.980Z,101368.91
2022-09-03T20:06:53.028Z,101368.94
2022-09-03T20:14:27.034Z,101374.41
2022-09-03T20:22:14.226Z,101384.34
2022-09-03T20:30:02.875Z,101391.53
2022-09-03T20:37:42.775Z,101392.47
2022-09-03T20:45:20.290Z,101392.53
2022-09-03T20:53:07.742Z,101400.72
2022-09-03T21:00:52.084Z,101403.47
2022-09-03T21:08:48.885Z,101404.44
2022-09-03T21:16:37.554Z,101391.84
2022-09-03T21:24:18.314Z,101406.31
2022-09-03T21:32:00.278Z,101408.13
2022-09-03T21:39:44.316Z,101417.16
2022-09-03T21:47:21.270Z,101421.72
2022-09-03T21:54:56.508Z,101428.94
2022-09-03T22:02:32.044Z,101428.97
2022-09-03T22:10:13.436Z,101440.72
2022-09-03T22:17:56.964Z,101440.78
2022-09-03T22:25:40.516Z,101439.91
2022-09-03T22:33:21.916Z,101454.34
2022-09-03T22:41:06.632Z,101444.50
2022-09-03T22:49:06.624Z,101460.75
2022-09-03T22:56:42.955Z,101465.22
2022-09-03T23:04:23.750Z,101467.06
2022-09-03T23:12:05.000Z,101478.78
2022-09-03T23:19:43.798Z,101478.78
2022-09-03T23:27:25.310Z,101484.16
2022-09-03T23:35:00.355Z,101481.47
2022-09-03T23:42:51.219Z,101483.22
2022-09-03T23:50:40.799Z,101478.72
2022-09-03T23:58:26.161Z,101490.41
